SY-0001 weather

Taftanaz Airbase
Taftanaz, Idlib Governorate, Syria

Public forecast

Using degrees Celsius for public forecast. Weather courtesy of forecast.io.

Closest aviation weather report (METAR) to Taftanaz Airbase

Report is more than 6 hours old.

Closest report is Aleppo International Airport, 24.8 nm (45.9 km) ENE. Retrieved 2019/12/03 18:00 UTC (6 days ago):

OSAP 031800Z 27002KT CAVOK 09/07 Q1018

Closest aviation forecast (TAF) to Taftanaz Airbase

Forecast is more than 12 hours old.

Closest forecast is Aleppo International Airport, 24.8 nm (45.9 km) ENE. Retrieved 2012/10/26 18:35 UTC (7 years ago):

TAF OSAP 261700Z 2618/2718 24010KT 9999 SCT030 BKN100 BECMG 2620/2622 VRB03KT 3000 BR BECMG 2707/2709 24012KT 7000 SCT030 BKN100